createdAt,value
2018-03-27T00:00:45.197Z,6.90
2018-03-27T00:03:11.570Z,6.17
2018-03-27T00:05:38.295Z,8.47
2018-03-27T00:08:05.571Z,6.10
2018-03-27T00:10:31.929Z,5.87
2018-03-27T00:12:58.336Z,7.00
2018-03-27T00:15:24.742Z,6.83
2018-03-27T00:17:51.049Z,5.33
2018-03-27T00:20:17.627Z,6.17
2018-03-27T00:22:44.019Z,6.43
2018-03-27T00:25:10.469Z,6.07
2018-03-27T00:27:49.143Z,5.83
2018-03-27T00:30:27.877Z,6.27
2018-03-27T00:33:06.693Z,5.73
2018-03-27T00:35:45.354Z,4.53
2018-03-27T00:38:24.114Z,6.47
2018-03-27T00:40:50.217Z,5.10
2018-03-27T00:43:16.601Z,5.17
2018-03-27T00:45:43.033Z,6.33
2018-03-27T00:48:09.434Z,5.43
2018-03-27T00:50:35.794Z,7.20
2018-03-27T00:53:02.220Z,6.40
2018-03-27T00:55:28.618Z,5.90
2018-03-27T00:57:54.944Z,5.63
2018-03-27T01:00:21.363Z,4.70
2018-03-27T01:02:47.801Z,4.60
2018-03-27T01:05:14.288Z,5.63
2018-03-27T01:07:40.669Z,4.83
2018-03-27T01:10:07.117Z,6.47
2018-03-27T01:12:33.470Z,5.17
2018-03-27T01:14:59.897Z,5.13
2018-03-27T01:17:26.258Z,6.00
2018-03-27T01:19:52.640Z,5.07
2018-03-27T01:22:19.085Z,5.03
2018-03-27T01:24:45.613Z,4.20
2018-03-27T01:27:11.955Z,5.03
2018-03-27T01:29:38.374Z,5.10
2018-03-27T01:32:04.728Z,6.87
2018-03-27T01:34:31.179Z,5.40
2018-03-27T01:36:57.547Z,4.87
2018-03-27T01:39:23.928Z,3.80
2018-03-27T01:41:50.315Z,4.07
2018-03-27T01:44:16.666Z,5.27
2018-03-27T01:46:43.181Z,4.40
2018-03-27T01:49:09.549Z,5.30
2018-03-27T01:51:35.988Z,4.77
2018-03-27T01:54:02.335Z,5.63
2018-03-27T01:56:29.124Z,6.50
2018-03-27T01:58:55.451Z,6.00
2018-03-27T02:01:21.755Z,4.30
2018-03-27T02:03:48.131Z,5.43
2018-03-27T02:06:14.652Z,5.77
2018-03-27T02:08:41.002Z,4.80
2018-03-27T02:11:13.235Z,5.63
2018-03-27T02:13:45.623Z,4.50
2018-03-27T02:16:17.835Z,3.53
2018-03-27T02:18:50.185Z,5.13
2018-03-27T02:21:22.510Z,3.43
2018-03-27T02:23:48.956Z,4.70
2018-03-27T02:26:15.322Z,4.77
2018-03-27T02:28:41.694Z,3.73
2018-03-27T02:31:08.074Z,4.20
2018-03-27T02:33:34.416Z,4.33
2018-03-27T02:36:01.127Z,3.77
2018-03-27T02:38:27.495Z,4.20
2018-03-27T02:40:53.843Z,4.13
2018-03-27T02:43:20.223Z,3.87
2018-03-27T02:45:46.806Z,4.43
2018-03-27T02:48:13.147Z,3.87
2018-03-27T02:50:39.494Z,3.80
2018-03-27T02:53:05.851Z,4.10
2018-03-27T02:55:32.275Z,3.80
2018-03-27T02:57:58.678Z,3.97
2018-03-27T03:00:25.058Z,3.10
2018-03-27T03:02:51.376Z,3.27
2018-03-27T03:05:17.859Z,3.23
2018-03-27T03:07:44.283Z,3.53
2018-03-27T03:10:10.601Z,3.30
2018-03-27T03:12:37.027Z,4.00
2018-03-27T03:15:03.534Z,3.93
2018-03-27T03:17:29.848Z,2.63
2018-03-27T03:19:56.357Z,3.17
2018-03-27T03:22:22.732Z,3.60
2018-03-27T03:24:49.093Z,3.00
2018-03-27T03:27:15.415Z,3.23
2018-03-27T03:29:41.732Z,3.17
2018-03-27T03:32:08.107Z,3.37
2018-03-27T03:34:34.430Z,3.60
2018-03-27T03:37:00.881Z,3.07
2018-03-27T03:39:27.227Z,2.90
2018-03-27T03:41:53.614Z,2.70
2018-03-27T03:44:20.014Z,2.93
2018-03-27T03:46:46.407Z,3.30
2018-03-27T03:49:12.770Z,2.70
2018-03-27T03:51:39.266Z,2.93
2018-03-27T03:54:05.650Z,3.20
2018-03-27T03:56:32.028Z,3.27
2018-03-27T03:58:58.400Z,2.87
2018-03-27T04:01:24.700Z,4.10
2018-03-27T04:03:51.074Z,3.40
2018-03-27T04:06:19.573Z,3.60
2018-03-27T04:08:45.862Z,3.60
2018-03-27T04:11:12.208Z,2.73
2018-03-27T04:13:38.566Z,4.00
2018-03-27T04:16:04.946Z,3.33
2018-03-27T04:18:31.256Z,3.90
2018-03-27T04:20:57.614Z,4.83
2018-03-27T04:23:23.971Z,5.20
2018-03-27T04:25:50.389Z,4.43
2018-03-27T04:28:17.086Z,3.93
2018-03-27T04:30:43.545Z,4.97
2018-03-27T04:33:09.860Z,4.57
2018-03-27T04:35:36.261Z,4.77
2018-03-27T04:38:02.632Z,4.70
2018-03-27T04:40:29.011Z,4.70
2018-03-27T04:42:55.310Z,4.77
2018-03-27T04:45:21.833Z,5.07
2018-03-27T04:47:48.165Z,5.67
2018-03-27T04:50:14.507Z,4.90
2018-03-27T04:52:40.805Z,6.13
2018-03-27T04:55:08.138Z,5.77
2018-03-27T04:57:34.637Z,4.87
2018-03-27T05:00:00.943Z,5.93
2018-03-27T05:02:27.293Z,5.70
2018-03-27T05:04:53.653Z,4.67
2018-03-27T05:07:19.955Z,4.47
2018-03-27T05:09:46.362Z,6.03
2018-03-27T05:12:12.741Z,5.50
2018-03-27T05:14:39.004Z,5.80
2018-03-27T05:17:05.389Z,5.20
2018-03-27T05:19:31.727Z,4.87
2018-03-27T05:21:58.038Z,5.50
2018-03-27T05:24:24.361Z,4.80
2018-03-27T05:26:50.855Z,4.23
2018-03-27T05:29:17.392Z,5.17
2018-03-27T05:31:43.884Z,4.50
2018-03-27T05:34:10.289Z,4.77
2018-03-27T05:36:36.669Z,3.70
2018-03-27T05:39:03.322Z,4.83
2018-03-27T05:41:29.717Z,4.97
2018-03-27T05:43:56.254Z,4.70
2018-03-27T05:46:22.904Z,4.57
2018-03-27T05:48:49.406Z,4.30
2018-03-27T05:51:15.839Z,4.40
2018-03-27T05:53:42.225Z,3.87
2018-03-27T05:56:08.720Z,3.90
2018-03-27T05:58:35.164Z,4.67
2018-03-27T06:01:01.485Z,4.13
2018-03-27T06:03:27.839Z,4.17
2018-03-27T06:05:54.241Z,4.60
2018-03-27T06:08:20.652Z,4.30
2018-03-27T06:10:47.059Z,5.80
2018-03-27T06:13:13.405Z,4.77
2018-03-27T06:15:39.797Z,5.00
2018-03-27T06:18:06.164Z,6.00
2018-03-27T06:20:32.581Z,6.40
2018-03-27T06:22:59.407Z,5.00
2018-03-27T06:25:25.831Z,5.13
2018-03-27T06:27:52.170Z,4.50
2018-03-27T06:30:18.657Z,5.03
2018-03-27T06:32:45.103Z,4.40
2018-03-27T06:35:11.528Z,4.47
2018-03-27T06:37:37.882Z,4.63
2018-03-27T06:40:04.204Z,3.80
2018-03-27T06:42:30.578Z,4.13
2018-03-27T06:44:56.923Z,3.53
2018-03-27T06:47:23.300Z,3.60
2018-03-27T06:49:49.646Z,4.07
2018-03-27T06:52:16.039Z,4.30
2018-03-27T06:54:42.531Z,3.63
2018-03-27T06:57:08.934Z,4.47
2018-03-27T06:59:35.269Z,3.77
2018-03-27T07:02:01.653Z,4.03
2018-03-27T07:04:27.984Z,3.70
2018-03-27T07:06:54.427Z,3.70
2018-03-27T07:09:20.825Z,3.67
2018-03-27T07:11:47.232Z,4.13
2018-03-27T07:14:13.553Z,4.10
2018-03-27T07:16:40.059Z,4.13
2018-03-27T07:19:06.421Z,3.17
2018-03-27T07:21:32.752Z,4.47
2018-03-27T07:23:59.207Z,4.00
2018-03-27T07:26:25.652Z,3.60
2018-03-27T07:28:52.261Z,3.73
2018-03-27T07:31:18.610Z,4.00
2018-03-27T07:33:45.289Z,3.67
2018-03-27T07:36:11.974Z,3.97
2018-03-27T07:38:38.403Z,4.53
2018-03-27T07:41:05.054Z,4.50
2018-03-27T07:43:31.691Z,4.57
2018-03-27T07:45:58.168Z,4.80
2018-03-27T07:48:24.540Z,5.20
2018-03-27T07:50:50.927Z,4.90
2018-03-27T07:53:17.348Z,5.83
2018-03-27T07:55:43.867Z,5.80
2018-03-27T07:58:10.363Z,5.20
2018-03-27T08:00:36.738Z,4.83
2018-03-27T08:03:03.104Z,5.20
2018-03-27T08:05:29.453Z,4.50
2018-03-27T08:07:55.848Z,4.40
2018-03-27T08:10:22.240Z,3.80
2018-03-27T08:12:49.628Z,3.20
2018-03-27T08:15:16.076Z,3.00
2018-03-27T08:17:42.452Z,2.67
2018-03-27T08:20:08.852Z,2.60
2018-03-27T08:22:35.276Z,2.90
2018-03-27T08:25:01.679Z,2.60
2018-03-27T08:27:28.280Z,2.90
2018-03-27T08:29:54.701Z,2.63
2018-03-27T08:32:21.172Z,2.60
2018-03-27T08:34:47.627Z,2.63
2018-03-27T08:37:14.077Z,2.70
2018-03-27T08:39:40.506Z,3.33
2018-03-27T08:42:07.911Z,3.20
2018-03-27T08:44:34.336Z,3.23
2018-03-27T08:47:00.902Z,3.17
2018-03-27T08:49:27.387Z,3.43
2018-03-27T08:51:53.823Z,3.27
2018-03-27T08:54:21.515Z,3.13
2018-03-27T08:56:48.229Z,3.47
2018-03-27T08:59:14.649Z,3.50
2018-03-27T09:01:41.328Z,3.57
2018-03-27T09:04:07.753Z,3.53
2018-03-27T09:06:34.216Z,3.07
2018-03-27T09:09:00.570Z,3.40
2018-03-27T09:11:26.980Z,3.60
2018-03-27T09:13:53.363Z,3.60
2018-03-27T09:16:19.781Z,3.23
2018-03-27T09:18:46.200Z,3.70
2018-03-27T09:21:12.617Z,3.23
2018-03-27T09:23:39.061Z,3.50
2018-03-27T09:26:05.535Z,3.40
2018-03-27T09:28:31.996Z,3.03
2018-03-27T09:30:59.485Z,3.30
2018-03-27T09:33:25.831Z,3.67
2018-03-27T09:35:52.989Z,3.57
2018-03-27T09:38:19.355Z,4.30
2018-03-27T09:40:45.737Z,4.20
2018-03-27T09:43:12.224Z,5.13
2018-03-27T09:45:38.712Z,3.40
2018-03-27T09:48:05.171Z,3.40
2018-03-27T09:50:31.708Z,3.37
2018-03-27T09:52:58.026Z,3.30
2018-03-27T09:55:24.469Z,3.67
2018-03-27T09:57:51.216Z,4.40
2018-03-27T10:00:17.666Z,4.30
2018-03-27T10:02:44.016Z,3.50
2018-03-27T10:05:10.680Z,3.37
2018-03-27T10:07:37.092Z,3.43
2018-03-27T10:10:03.450Z,3.97
2018-03-27T10:12:30.015Z,3.90
2018-03-27T10:14:56.534Z,3.87
2018-03-27T10:17:23.266Z,4.60
2018-03-27T10:19:49.678Z,4.33
2018-03-27T10:22:16.340Z,4.37
2018-03-27T10:24:42.830Z,4.67
2018-03-27T10:27:09.372Z,4.33
2018-03-27T10:29:35.742Z,4.87
2018-03-27T10:32:02.196Z,4.53
2018-03-27T10:34:28.691Z,4.37
2018-03-27T10:36:55.423Z,4.70
2018-03-27T10:39:21.826Z,4.90
2018-03-27T10:41:48.246Z,3.93
2018-03-27T10:44:14.670Z,4.47
2018-03-27T10:46:41.132Z,4.37
2018-03-27T10:49:07.559Z,4.00
2018-03-27T10:51:33.991Z,4.17
2018-03-27T10:54:00.681Z,4.33
2018-03-27T10:56:28.216Z,3.77
2018-03-27T10:58:54.897Z,4.20
2018-03-27T11:01:22.757Z,4.67
2018-03-27T11:03:50.729Z,3.93
2018-03-27T11:06:18.535Z,4.10
2018-03-27T11:08:45.068Z,4.10
2018-03-27T11:11:11.514Z,3.50
2018-03-27T11:13:37.843Z,4.03
2018-03-27T11:16:05.186Z,6.90
2018-03-27T11:18:31.560Z,4.23
2018-03-27T11:20:57.908Z,2.90
2018-03-27T11:23:24.669Z,2.93
2018-03-27T11:25:51.192Z,3.23
2018-03-27T11:28:17.531Z,3.33
2018-03-27T11:30:43.896Z,3.00
2018-03-27T11:33:10.305Z,2.90
2018-03-27T11:35:36.709Z,3.70
2018-03-27T11:38:03.078Z,4.10
2018-03-27T11:40:29.476Z,3.50
2018-03-27T11:42:55.816Z,4.10
2018-03-27T11:45:22.154Z,3.97
2018-03-27T11:47:48.571Z,4.37
2018-03-27T11:50:14.950Z,5.70
2018-03-27T11:52:41.379Z,3.77
2018-03-27T11:55:07.803Z,4.10
2018-03-27T11:57:34.158Z,4.00
2018-03-27T12:00:00.540Z,4.23
2018-03-27T12:02:27.001Z,6.17
2018-03-27T12:04:53.435Z,6.87
2018-03-27T12:07:20.021Z,8.67
2018-03-27T12:09:46.510Z,7.60
2018-03-27T12:12:13.032Z,8.13
2018-03-27T12:14:39.498Z,8.67
2018-03-27T12:17:05.986Z,8.17
2018-03-27T12:19:32.600Z,7.47
2018-03-27T12:21:59.136Z,7.97
2018-03-27T12:24:25.527Z,7.87
2018-03-27T12:26:51.970Z,9.53
2018-03-27T12:29:19.017Z,9.03
2018-03-27T12:31:45.551Z,8.17
2018-03-27T12:34:12.336Z,9.67
2018-03-27T12:36:38.840Z,11.57
2018-03-27T12:39:06.032Z,13.03
2018-03-27T12:41:32.365Z,14.63
2018-03-27T12:43:58.856Z,9.63
2018-03-27T12:46:25.458Z,7.73
2018-03-27T12:48:51.894Z,9.27
2018-03-27T12:51:18.380Z,9.20
2018-03-27T12:53:44.793Z,9.47
2018-03-27T12:56:11.317Z,8.47
2018-03-27T12:58:37.734Z,8.27
2018-03-27T13:01:04.138Z,8.57
2018-03-27T13:03:30.619Z,7.77
2018-03-27T13:05:57.254Z,8.00
2018-03-27T13:08:23.692Z,7.07
2018-03-27T13:10:50.297Z,7.40
2018-03-27T13:13:16.800Z,6.10
2018-03-27T13:15:43.330Z,5.77
2018-03-27T13:18:09.860Z,5.93
2018-03-27T13:20:36.558Z,5.53
2018-03-27T13:23:03.055Z,5.23
2018-03-27T13:25:29.528Z,5.13
2018-03-27T13:27:56.048Z,4.77
2018-03-27T13:30:22.435Z,5.33
2018-03-27T13:32:48.803Z,4.90
2018-03-27T13:35:15.270Z,4.87
2018-03-27T13:37:41.711Z,6.40
2018-03-27T13:40:08.061Z,7.80
2018-03-27T13:42:34.493Z,7.27
2018-03-27T13:45:00.982Z,8.00
2018-03-27T13:47:27.386Z,8.07
2018-03-27T13:49:53.753Z,8.10
2018-03-27T13:52:20.139Z,8.53
2018-03-27T13:54:46.547Z,8.73
2018-03-27T13:57:13.141Z,8.70
2018-03-27T13:59:39.538Z,8.30
2018-03-27T14:02:05.950Z,7.30
2018-03-27T14:04:32.412Z,7.70
2018-03-27T14:06:58.869Z,9.07
2018-03-27T14:09:25.351Z,8.03
2018-03-27T14:11:51.869Z,8.37
2018-03-27T14:14:18.383Z,7.93
2018-03-27T14:16:44.867Z,8.37
2018-03-27T14:19:11.286Z,8.13
2018-03-27T14:21:38.860Z,8.60
2018-03-27T14:24:05.356Z,8.73
2018-03-27T14:26:31.998Z,8.67
2018-03-27T14:28:58.386Z,9.77
2018-03-27T14:31:25.701Z,9.03
2018-03-27T14:33:52.180Z,8.77
2018-03-27T14:36:18.860Z,9.27
2018-03-27T14:38:45.572Z,8.53
2018-03-27T14:41:12.055Z,10.13
2018-03-27T14:43:38.579Z,9.70
2018-03-27T14:46:05.245Z,8.83
2018-03-27T14:48:31.712Z,9.80
2018-03-27T14:50:58.151Z,9.57
2018-03-27T14:53:24.812Z,11.17
2018-03-27T14:55:52.114Z,10.97
2018-03-27T14:58:18.597Z,9.80
2018-03-27T15:00:44.997Z,18.73
2018-03-27T15:03:11.502Z,14.23
2018-03-27T15:05:37.937Z,13.00
2018-03-27T15:08:04.489Z,14.03
2018-03-27T15:10:31.059Z,13.13
2018-03-27T15:12:57.776Z,13.63
2018-03-27T15:15:24.300Z,13.87
2018-03-27T15:17:51.214Z,13.27
2018-03-27T15:20:17.734Z,13.83
2018-03-27T15:22:44.211Z,13.37
2018-03-27T15:25:10.685Z,14.07
2018-03-27T15:27:37.161Z,16.60
2018-03-27T15:30:03.682Z,14.33
2018-03-27T15:32:30.125Z,13.43
2018-03-27T15:34:56.476Z,13.90
2018-03-27T15:37:22.994Z,13.87
2018-03-27T15:39:49.558Z,12.83
2018-03-27T15:42:16.022Z,14.17
2018-03-27T15:44:42.630Z,14.03
2018-03-27T15:47:09.244Z,14.90
2018-03-27T15:49:35.800Z,15.37
2018-03-27T15:52:02.620Z,14.07
2018-03-27T15:54:30.504Z,15.07
2018-03-27T15:56:57.757Z,15.83
2018-03-27T15:59:24.392Z,15.23
2018-03-27T16:01:50.943Z,16.87
2018-03-27T16:04:17.391Z,15.77
2018-03-27T16:06:43.996Z,17.17
2018-03-27T16:09:10.644Z,16.67
2018-03-27T16:11:37.142Z,14.53
2018-03-27T16:14:03.815Z,14.83
2018-03-27T16:16:30.556Z,15.63
2018-03-27T16:18:57.449Z,16.23
2018-03-27T16:21:24.240Z,16.13
2018-03-27T16:23:51.042Z,18.63
2018-03-27T16:26:17.571Z,18.40
2018-03-27T16:28:44.206Z,18.17
2018-03-27T16:31:10.915Z,18.33
2018-03-27T16:33:37.556Z,17.40
2018-03-27T16:36:04.232Z,14.00
2018-03-27T16:38:30.964Z,14.27
2018-03-27T16:40:57.790Z,15.60
2018-03-27T16:43:24.471Z,14.73
2018-03-27T16:45:51.222Z,13.03
2018-03-27T16:48:18.066Z,13.23
2018-03-27T16:50:44.988Z,12.23
2018-03-27T16:53:11.833Z,13.47
2018-03-27T16:55:38.794Z,13.30
2018-03-27T16:58:05.790Z,13.23
2018-03-27T17:00:32.762Z,13.43
2018-03-27T17:02:59.590Z,12.73
2018-03-27T17:05:26.347Z,12.40
2018-03-27T17:07:53.307Z,11.57
2018-03-27T17:10:20.157Z,12.90
2018-03-27T17:12:46.970Z,11.80
2018-03-27T17:15:13.958Z,13.30
2018-03-27T17:17:40.981Z,12.00
2018-03-27T17:20:07.900Z,11.83
2018-03-27T17:22:35.058Z,13.07
2018-03-27T17:25:01.968Z,13.60
2018-03-27T17:27:28.866Z,13.00
2018-03-27T17:29:55.793Z,12.67
2018-03-27T17:32:22.862Z,13.13
2018-03-27T17:34:49.885Z,13.47
2018-03-27T17:37:16.763Z,14.07
2018-03-27T17:39:43.535Z,14.03
2018-03-27T17:42:10.287Z,14.67
2018-03-27T17:44:37.112Z,14.57
2018-03-27T17:47:04.023Z,13.80
2018-03-27T17:49:30.756Z,11.97
2018-03-27T17:51:59.343Z,14.90
2018-03-27T17:54:26.127Z,13.47
2018-03-27T17:56:53.192Z,13.13
2018-03-27T17:59:20.683Z,14.70
2018-03-27T18:01:47.397Z,13.47
2018-03-27T18:04:14.153Z,13.50
2018-03-27T18:06:41.668Z,12.87
2018-03-27T18:09:08.481Z,14.07
2018-03-27T18:11:35.831Z,14.07
2018-03-27T18:14:02.780Z,13.73
2018-03-27T18:16:30.560Z,14.67
2018-03-27T18:18:57.450Z,12.70
2018-03-27T18:21:24.527Z,14.20
2018-03-27T18:23:51.536Z,12.93
2018-03-27T18:26:18.429Z,13.33
2018-03-27T18:28:45.587Z,14.37
2018-03-27T18:31:13.010Z,13.03
2018-03-27T18:33:39.873Z,13.97
2018-03-27T18:36:06.596Z,14.27
2018-03-27T18:38:33.471Z,14.87
2018-03-27T18:41:00.290Z,13.93
2018-03-27T18:43:27.063Z,14.83
2018-03-27T18:45:54.331Z,12.90
2018-03-27T18:48:21.255Z,14.27
2018-03-27T18:50:49.429Z,11.97
2018-03-27T18:53:17.188Z,13.70
2018-03-27T18:55:47.260Z,12.87
2018-03-27T18:58:14.170Z,13.43
2018-03-27T19:00:41.018Z,12.33
2018-03-27T19:03:07.870Z,12.80
2018-03-27T19:05:35.022Z,12.93
2018-03-27T19:08:02.279Z,12.07
2018-03-27T19:10:30.292Z,13.33
2018-03-27T19:12:57.749Z,12.80
2018-03-27T19:15:25.965Z,12.73
2018-03-27T19:17:53.026Z,12.60
2018-03-27T19:20:20.225Z,12.40
2018-03-27T19:22:47.284Z,11.33
2018-03-27T19:25:14.487Z,11.73
2018-03-27T19:27:41.363Z,12.83
2018-03-27T19:30:08.240Z,13.07
2018-03-27T19:32:35.308Z,12.60
2018-03-27T19:35:02.280Z,12.30
2018-03-27T19:37:29.182Z,13.80
2018-03-27T19:39:56.199Z,14.40
2018-03-27T19:42:24.126Z,13.23
2018-03-27T19:44:51.031Z,12.70
2018-03-27T19:47:18.260Z,14.17
2018-03-27T19:49:45.440Z,12.83
2018-03-27T19:52:12.348Z,11.23
2018-03-27T19:54:40.075Z,11.90
2018-03-27T19:57:07.116Z,11.77
2018-03-27T19:59:33.909Z,12.10
2018-03-27T20:02:00.771Z,12.10
2018-03-27T20:04:27.420Z,13.07
2018-03-27T20:06:54.281Z,11.17
2018-03-27T20:09:21.084Z,13.33
2018-03-27T20:11:47.839Z,12.67
2018-03-27T20:14:14.731Z,12.70
2018-03-27T20:16:41.713Z,11.43
2018-03-27T20:19:08.717Z,12.77
2018-03-27T20:21:35.811Z,11.20
2018-03-27T20:24:02.855Z,12.07
2018-03-27T20:26:29.629Z,11.53
2018-03-27T20:28:57.161Z,11.03
2018-03-27T20:31:24.490Z,11.97
2018-03-27T20:33:52.015Z,12.40
2018-03-27T20:36:19.762Z,12.10
2018-03-27T20:38:46.530Z,11.37
2018-03-27T20:41:13.422Z,11.07
2018-03-27T20:43:40.295Z,11.93
2018-03-27T20:46:07.035Z,10.50
2018-03-27T20:48:33.841Z,12.30
2018-03-27T20:51:00.519Z,12.33
2018-03-27T20:53:27.485Z,12.10
2018-03-27T20:55:54.331Z,13.30
2018-03-27T20:58:21.181Z,12.77
2018-03-27T21:00:48.050Z,13.60
2018-03-27T21:03:16.569Z,12.70
2018-03-27T21:05:43.308Z,12.20
2018-03-27T21:08:10.062Z,12.60
2018-03-27T21:10:36.704Z,13.33
2018-03-27T21:13:03.505Z,12.77
2018-03-27T21:15:30.209Z,12.93
2018-03-27T21:17:56.951Z,13.03
2018-03-27T21:20:23.606Z,12.57
2018-03-27T21:22:50.305Z,13.07
2018-03-27T21:25:17.258Z,12.30
2018-03-27T21:27:43.811Z,13.10
2018-03-27T21:30:10.488Z,13.13
2018-03-27T21:32:36.970Z,12.87
2018-03-27T21:35:03.419Z,12.23
2018-03-27T21:37:29.913Z,11.63
2018-03-27T21:39:56.307Z,13.47
2018-03-27T21:42:22.658Z,11.20
2018-03-27T21:44:49.181Z,12.57
2018-03-27T21:47:15.696Z,11.63
2018-03-27T21:49:42.153Z,11.60
2018-03-27T21:52:08.650Z,11.57
2018-03-27T21:54:35.009Z,11.53
2018-03-27T21:57:01.403Z,12.60
2018-03-27T21:59:27.817Z,13.67
2018-03-27T22:01:54.239Z,11.37
2018-03-27T22:04:20.620Z,11.67
2018-03-27T22:06:47.069Z,13.27
2018-03-27T22:09:13.443Z,12.10
2018-03-27T22:11:39.884Z,12.13
2018-03-27T22:14:06.302Z,11.83
2018-03-27T22:16:32.661Z,13.40
2018-03-27T22:18:58.992Z,11.43
2018-03-27T22:21:25.496Z,12.17
2018-03-27T22:23:51.849Z,13.20
2018-03-27T22:26:18.361Z,12.47
2018-03-27T22:28:44.820Z,12.07
2018-03-27T22:31:11.237Z,10.60
2018-03-27T22:33:37.670Z,11.87
2018-03-27T22:36:04.127Z,11.83
2018-03-27T22:38:30.570Z,12.17
2018-03-27T22:40:57.013Z,11.70
2018-03-27T22:43:23.414Z,12.67
2018-03-27T22:45:49.832Z,12.73
2018-03-27T22:48:16.340Z,12.73
2018-03-27T22:50:42.883Z,11.73
2018-03-27T22:53:09.270Z,11.20
2018-03-27T22:55:35.631Z,11.90
2018-03-27T22:58:02.198Z,13.73
2018-03-27T23:00:28.562Z,12.00
2018-03-27T23:02:55.078Z,12.53
2018-03-27T23:05:21.508Z,11.90
2018-03-27T23:07:48.033Z,11.87
2018-03-27T23:10:14.457Z,13.67
2018-03-27T23:12:40.986Z,11.53
2018-03-27T23:15:07.494Z,10.83
2018-03-27T23:17:33.901Z,10.63
2018-03-27T23:20:00.436Z,13.67
2018-03-27T23:22:31.018Z,12.37
2018-03-27T23:24:57.544Z,13.83
2018-03-27T23:27:24.026Z,13.40
2018-03-27T23:29:50.524Z,12.20
2018-03-27T23:32:17.058Z,12.50
2018-03-27T23:34:43.545Z,11.90
2018-03-27T23:37:10.384Z,11.80
2018-03-27T23:39:36.739Z,12.40
2018-03-27T23:42:03.478Z,12.07
2018-03-27T23:44:30.052Z,11.93
2018-03-27T23:46:56.770Z,11.67
2018-03-27T23:49:23.361Z,11.63
2018-03-27T23:51:49.785Z,10.90
2018-03-27T23:54:16.319Z,12.97
2018-03-27T23:56:43.009Z,12.37
2018-03-27T23:59:09.343Z,11.00
